createdAt,value
2019-06-28T00:00:55.072Z,0.00
2019-06-28T00:01:55.073Z,0.00
2019-06-28T00:02:55.070Z,0.00
2019-06-28T00:03:55.066Z,0.00
2019-06-28T00:04:55.065Z,0.00
2019-06-28T00:05:55.064Z,0.00
2019-06-28T00:06:55.062Z,0.00
2019-06-28T00:07:55.062Z,0.00
2019-06-28T00:08:55.060Z,0.00
2019-06-28T00:09:55.063Z,0.00
2019-06-28T00:10:55.060Z,0.00
2019-06-28T00:11:55.057Z,0.00
2019-06-28T00:12:55.053Z,0.00
2019-06-28T00:13:55.052Z,0.00
2019-06-28T00:14:55.058Z,0.00
2019-06-28T00:15:55.049Z,0.00
2019-06-28T00:16:55.065Z,0.00
2019-06-28T00:17:55.045Z,0.00
2019-06-28T00:18:55.047Z,0.00
2019-06-28T00:19:55.045Z,0.00
2019-06-28T00:20:55.070Z,0.00
2019-06-28T00:21:55.040Z,0.00
2019-06-28T00:22:55.039Z,0.00
2019-06-28T00:23:55.038Z,0.00
2019-06-28T00:24:55.037Z,0.00
2019-06-28T00:25:55.036Z,0.00
2019-06-28T00:26:55.034Z,0.00
2019-06-28T00:27:55.032Z,0.00
2019-06-28T00:28:55.035Z,0.00
2019-06-28T00:29:55.031Z,0.00
2019-06-28T00:30:55.030Z,0.00
2019-06-28T00:31:55.032Z,0.00
2019-06-28T00:32:55.029Z,0.00
2019-06-28T00:33:55.023Z,0.00
2019-06-28T00:34:55.024Z,0.00
2019-06-28T00:35:55.021Z,0.00
2019-06-28T00:36:55.019Z,0.00
2019-06-28T00:37:55.019Z,0.00
2019-06-28T00:38:55.017Z,0.00
2019-06-28T00:39:55.015Z,0.00
2019-06-28T00:40:55.016Z,0.00
2019-06-28T00:41:55.012Z,0.00
2019-06-28T00:42:55.021Z,0.00
2019-06-28T00:43:55.026Z,0.00
2019-06-28T00:44:55.011Z,0.00
2019-06-28T00:45:55.005Z,0.00
2019-06-28T00:46:55.003Z,0.00
2019-06-28T00:47:55.022Z,0.00
2019-06-28T00:48:55.006Z,0.00
2019-06-28T00:49:54.996Z,0.00
2019-06-28T00:50:55.000Z,0.00
2019-06-28T00:51:54.998Z,0.00
2019-06-28T00:52:54.994Z,0.00
2019-06-28T00:53:54.989Z,0.00
2019-06-28T00:54:54.991Z,0.00
2019-06-28T00:55:54.989Z,0.00
2019-06-28T00:56:54.987Z,0.00
2019-06-28T00:57:54.983Z,0.00
2019-06-28T00:58:54.979Z,0.00
2019-06-28T00:59:54.980Z,0.00
2019-06-28T01:00:54.981Z,0.00
2019-06-28T01:01:54.975Z,0.00
2019-06-28T01:02:54.972Z,0.00
2019-06-28T01:03:54.975Z,0.00
2019-06-28T01:04:55.002Z,0.00
2019-06-28T01:05:54.968Z,0.00
2019-06-28T01:06:54.986Z,0.00
2019-06-28T01:07:54.970Z,0.00
2019-06-28T01:08:54.963Z,0.00
2019-06-28T01:09:54.963Z,0.00
2019-06-28T01:11:08.028Z,0.00
2019-06-28T01:11:54.958Z,0.00
2019-06-28T01:12:55.861Z,0.00
2019-06-28T01:13:54.953Z,0.00
2019-06-28T01:14:54.952Z,0.00
2019-06-28T01:15:54.951Z,0.00
2019-06-28T01:16:54.950Z,0.00
2019-06-28T01:17:54.945Z,0.00
2019-06-28T01:18:54.945Z,0.00
2019-06-28T01:19:54.942Z,0.00
2019-06-28T01:20:54.947Z,0.00
2019-06-28T01:21:54.937Z,0.00
2019-06-28T01:22:54.937Z,0.00
2019-06-28T01:23:54.936Z,0.00
2019-06-28T01:24:54.935Z,0.00
2019-06-28T01:25:54.958Z,0.00
2019-06-28T01:26:54.930Z,0.00
2019-06-28T01:27:54.928Z,0.00
2019-06-28T01:28:54.925Z,0.00
2019-06-28T01:29:54.922Z,0.00
2019-06-28T01:30:54.920Z,0.00
2019-06-28T01:31:54.929Z,0.00
2019-06-28T01:32:54.918Z,0.00
2019-06-28T01:33:54.913Z,0.00
2019-06-28T01:34:54.915Z,0.00
2019-06-28T01:35:54.909Z,0.00
2019-06-28T01:36:54.911Z,0.00
2019-06-28T01:37:54.906Z,0.00
2019-06-28T01:38:54.905Z,0.00
2019-06-28T01:39:54.901Z,0.00
2019-06-28T01:40:54.900Z,0.00
2019-06-28T01:41:54.901Z,0.00
2019-06-28T01:42:54.895Z,0.00
2019-06-28T01:43:54.893Z,0.00
2019-06-28T01:44:54.890Z,0.00
2019-06-28T01:45:54.887Z,0.00
2019-06-28T01:46:54.886Z,0.00
2019-06-28T01:47:54.882Z,0.00
2019-06-28T01:48:54.882Z,0.00
2019-06-28T01:49:54.880Z,0.00
2019-06-28T01:50:54.878Z,0.00
2019-06-28T01:51:54.873Z,0.00
2019-06-28T01:52:54.873Z,0.00
2019-06-28T01:53:54.887Z,0.00
2019-06-28T01:54:54.866Z,0.00
2019-06-28T01:55:54.865Z,0.00
2019-06-28T01:56:54.864Z,0.00
2019-06-28T01:57:54.884Z,0.00
2019-06-28T01:58:54.857Z,0.00
2019-06-28T01:59:54.855Z,0.00
2019-06-28T02:00:54.852Z,0.00
2019-06-28T02:01:54.853Z,0.00
2019-06-28T02:02:54.850Z,0.00
2019-06-28T02:03:54.847Z,0.00
2019-06-28T02:04:54.846Z,0.00
2019-06-28T02:05:54.842Z,0.00
2019-06-28T02:06:54.838Z,0.00
2019-06-28T02:07:54.837Z,0.00
2019-06-28T02:08:54.834Z,0.00
2019-06-28T02:09:54.832Z,0.00
2019-06-28T02:10:54.829Z,0.00
2019-06-28T02:11:54.827Z,0.00
2019-06-28T02:12:54.824Z,0.00
2019-06-28T02:13:54.821Z,0.00
2019-06-28T02:14:54.824Z,0.00
2019-06-28T02:15:54.818Z,0.00
2019-06-28T02:16:54.814Z,0.00
2019-06-28T02:17:54.813Z,0.00
2019-06-28T02:18:54.809Z,0.00
2019-06-28T02:19:54.807Z,0.00
2019-06-28T02:20:54.805Z,0.00
2019-06-28T02:21:54.803Z,0.00
2019-06-28T02:22:54.840Z,0.00
2019-06-28T02:23:54.799Z,0.00
2019-06-28T02:24:54.804Z,0.00
2019-06-28T02:25:54.792Z,0.00
2019-06-28T02:26:54.991Z,0.00
2019-06-28T02:27:54.787Z,0.00
2019-06-28T02:28:54.786Z,0.00
2019-06-28T02:29:54.782Z,0.00
2019-06-28T02:30:54.847Z,0.00
2019-06-28T02:31:54.785Z,0.00
2019-06-28T02:32:54.775Z,0.00
2019-06-28T02:33:54.776Z,0.00
2019-06-28T02:34:54.773Z,0.00
2019-06-28T02:35:54.767Z,0.00
2019-06-28T02:36:54.765Z,0.00
2019-06-28T02:37:54.770Z,0.00
2019-06-28T02:38:54.833Z,0.00
2019-06-28T02:39:54.758Z,0.00
2019-06-28T02:40:54.759Z,0.00
2019-06-28T02:42:05.093Z,0.00
2019-06-28T02:42:54.750Z,0.00
2019-06-28T02:43:54.749Z,0.00
2019-06-28T02:44:54.745Z,0.00
2019-06-28T02:45:54.742Z,0.00
2019-06-28T02:46:54.742Z,0.00
2019-06-28T02:47:54.737Z,0.00
2019-06-28T02:48:54.737Z,0.00
2019-06-28T02:49:54.728Z,0.00
2019-06-28T02:50:54.727Z,0.00
2019-06-28T02:51:54.727Z,0.00
2019-06-28T02:52:54.730Z,0.00
2019-06-28T02:53:54.722Z,0.00
2019-06-28T02:54:54.722Z,0.00
2019-06-28T02:55:54.722Z,0.00
2019-06-28T02:56:54.714Z,0.00
2019-06-28T02:57:54.712Z,0.00
2019-06-28T02:58:54.709Z,0.00
2019-06-28T02:59:54.706Z,0.00
2019-06-28T03:00:54.705Z,0.00
2019-06-28T03:01:54.700Z,0.00
2019-06-28T03:02:54.698Z,0.00
2019-06-28T03:03:54.695Z,0.00
2019-06-28T03:04:54.690Z,0.00
2019-06-28T03:05:54.690Z,0.00
2019-06-28T03:06:54.686Z,0.00
2019-06-28T03:07:54.690Z,0.00
2019-06-28T03:08:54.690Z,0.00
2019-06-28T03:09:54.686Z,0.00
2019-06-28T03:10:54.676Z,0.00
2019-06-28T03:11:54.689Z,0.00
2019-06-28T03:12:54.670Z,0.00
2019-06-28T03:13:54.665Z,0.00
2019-06-28T03:14:54.667Z,0.00
2019-06-28T03:15:54.661Z,0.00
2019-06-28T03:16:54.658Z,0.00
2019-06-28T03:17:54.658Z,0.00
2019-06-28T03:18:54.666Z,0.00
2019-06-28T03:19:54.648Z,0.00
2019-06-28T03:20:54.653Z,0.00
2019-06-28T03:21:54.655Z,0.00
2019-06-28T03:22:54.644Z,0.00
2019-06-28T03:23:54.642Z,0.00
2019-06-28T03:24:54.636Z,0.00
2019-06-28T03:25:54.634Z,0.00
2019-06-28T03:26:54.634Z,0.00
2019-06-28T03:27:54.631Z,0.00
2019-06-28T03:28:54.627Z,0.00
2019-06-28T03:29:54.622Z,0.00
2019-06-28T03:30:54.619Z,0.00
2019-06-28T03:31:54.620Z,5.63
2019-06-28T03:32:54.616Z,5.63
2019-06-28T03:33:54.614Z,5.63
2019-06-28T03:34:54.609Z,5.63
2019-06-28T03:35:54.608Z,5.63
2019-06-28T03:36:54.609Z,5.63
2019-06-28T03:37:54.600Z,5.63
2019-06-28T03:38:54.600Z,5.63
2019-06-28T03:39:54.597Z,5.63
2019-06-28T03:40:54.593Z,11.25
2019-06-28T03:41:54.686Z,11.25
2019-06-28T03:42:54.602Z,11.25
2019-06-28T03:43:54.584Z,11.25
2019-06-28T03:44:54.582Z,11.25
2019-06-28T03:45:54.580Z,11.25
2019-06-28T03:46:54.576Z,11.25
2019-06-28T03:47:54.575Z,16.88
2019-06-28T03:48:54.572Z,16.88
2019-06-28T03:49:54.578Z,16.88
2019-06-28T03:50:54.564Z,16.88
2019-06-28T03:51:54.563Z,16.88
2019-06-28T03:52:54.567Z,22.50
2019-06-28T03:53:54.559Z,22.50
2019-06-28T03:54:54.552Z,22.50
2019-06-28T03:55:54.551Z,22.50
2019-06-28T03:56:54.549Z,28.13
2019-06-28T03:57:54.543Z,28.13
2019-06-28T03:58:54.541Z,28.13
2019-06-28T03:59:54.539Z,28.13
2019-06-28T04:00:54.536Z,33.75
2019-06-28T04:01:54.533Z,33.75
2019-06-28T04:02:54.529Z,33.75
2019-06-28T04:03:54.529Z,33.75
2019-06-28T04:04:54.525Z,39.38
2019-06-28T04:05:54.521Z,39.38
2019-06-28T04:06:54.519Z,39.38
2019-06-28T04:07:54.514Z,45.00
2019-06-28T04:08:54.514Z,45.00
2019-06-28T04:09:54.510Z,45.00
2019-06-28T04:10:54.508Z,50.63
2019-06-28T04:11:54.509Z,50.63
2019-06-28T04:13:04.537Z,50.63
2019-06-28T04:13:54.499Z,56.25
2019-06-28T04:14:54.495Z,56.25
2019-06-28T04:15:54.492Z,61.88
2019-06-28T04:16:54.503Z,61.88
2019-06-28T04:17:54.489Z,61.88
2019-06-28T04:18:54.513Z,61.88
2019-06-28T04:20:01.723Z,101.25
2019-06-28T04:20:54.484Z,258.75
2019-06-28T04:21:54.478Z,388.13
2019-06-28T04:22:54.475Z,410.63
2019-06-28T04:23:54.470Z,438.75
2019-06-28T04:24:54.470Z,450.00
2019-06-28T04:25:54.464Z,472.50
2019-06-28T04:26:54.465Z,478.13
2019-06-28T04:27:54.460Z,438.75
2019-06-28T04:28:54.459Z,427.50
2019-06-28T04:29:54.459Z,483.75
2019-06-28T04:30:54.457Z,511.88
2019-06-28T04:31:54.455Z,472.50
2019-06-28T04:32:54.457Z,472.50
2019-06-28T04:33:54.455Z,545.63
2019-06-28T04:34:54.453Z,618.75
2019-06-28T04:35:54.449Z,641.25
2019-06-28T04:36:54.451Z,652.50
2019-06-28T04:37:54.450Z,691.88
2019-06-28T04:38:54.449Z,708.75
2019-06-28T04:39:54.449Z,720.00
2019-06-28T04:40:54.452Z,725.63
2019-06-28T04:41:54.450Z,725.63
2019-06-28T04:42:54.466Z,658.13
2019-06-28T04:43:54.445Z,641.25
2019-06-28T04:44:54.447Z,630.00
2019-06-28T04:45:54.453Z,635.63
2019-06-28T04:46:54.448Z,714.38
2019-06-28T04:47:54.451Z,776.25
2019-06-28T04:48:54.453Z,821.25
2019-06-28T04:49:54.456Z,826.88
2019-06-28T04:50:54.454Z,815.63
2019-06-28T04:51:54.455Z,804.38
2019-06-28T04:52:54.454Z,770.63
2019-06-28T04:53:54.455Z,798.75
2019-06-28T04:54:54.455Z,883.13
2019-06-28T04:55:54.458Z,945.00
2019-06-28T04:56:54.461Z,956.25
2019-06-28T04:57:54.470Z,911.25
2019-06-28T04:58:54.465Z,888.75
2019-06-28T04:59:54.464Z,883.13
2019-06-28T05:00:54.467Z,905.63
2019-06-28T05:01:54.469Z,961.88
2019-06-28T05:02:54.473Z,1006.88
2019-06-28T05:03:54.474Z,995.63
2019-06-28T05:04:54.477Z,1040.63
2019-06-28T05:05:54.483Z,1096.88
2019-06-28T05:06:54.481Z,1063.13
2019-06-28T05:07:54.525Z,635.63
2019-06-28T05:08:54.484Z,225.00
2019-06-28T05:09:54.505Z,208.13
2019-06-28T05:10:54.491Z,196.88
2019-06-28T05:11:54.666Z,191.25
2019-06-28T05:12:54.496Z,185.63
2019-06-28T05:13:54.499Z,185.63
2019-06-28T05:14:54.502Z,180.00
2019-06-28T05:15:54.506Z,185.63
2019-06-28T05:16:54.508Z,180.00
2019-06-28T05:17:54.523Z,180.00
2019-06-28T05:18:54.511Z,180.00
2019-06-28T05:19:54.515Z,174.38
2019-06-28T05:20:54.521Z,174.38
2019-06-28T05:21:54.522Z,174.38
2019-06-28T05:22:54.518Z,174.38
2019-06-28T05:23:54.522Z,168.75
2019-06-28T05:24:54.525Z,168.75
2019-06-28T05:25:54.522Z,168.75
2019-06-28T05:26:54.553Z,163.13
2019-06-28T05:27:54.529Z,163.13
2019-06-28T05:28:54.535Z,163.13
2019-06-28T05:29:54.527Z,163.13
2019-06-28T05:30:54.584Z,163.13
2019-06-28T05:31:54.531Z,163.13
2019-06-28T05:32:54.541Z,163.13
2019-06-28T05:33:54.532Z,163.13
2019-06-28T05:34:54.531Z,168.75
2019-06-28T05:35:54.533Z,163.13
2019-06-28T05:36:54.532Z,163.13
2019-06-28T05:37:54.531Z,163.13
2019-06-28T05:38:54.533Z,163.13
2019-06-28T05:39:54.531Z,163.13
2019-06-28T05:40:54.531Z,163.13
2019-06-28T05:41:54.534Z,163.13
2019-06-28T05:42:54.531Z,163.13
2019-06-28T05:43:54.863Z,163.13
2019-06-28T05:44:54.530Z,163.13
2019-06-28T05:45:57.747Z,157.50
2019-06-28T05:46:54.531Z,157.50
2019-06-28T05:47:54.532Z,157.50
2019-06-28T05:48:54.530Z,157.50
2019-06-28T05:49:54.528Z,157.50
2019-06-28T05:50:54.526Z,163.13
2019-06-28T05:51:54.526Z,157.50
2019-06-28T05:52:54.533Z,157.50
2019-06-28T05:53:54.527Z,157.50
2019-06-28T05:54:54.532Z,151.88
2019-06-28T05:55:54.561Z,151.88
2019-06-28T05:56:54.525Z,151.88
2019-06-28T05:57:54.527Z,151.88
2019-06-28T05:58:54.524Z,151.88
2019-06-28T05:59:54.521Z,151.88
2019-06-28T06:00:55.757Z,151.88
2019-06-28T06:01:54.520Z,151.88
2019-06-28T06:02:54.525Z,151.88
2019-06-28T06:03:54.523Z,151.88
2019-06-28T06:04:54.614Z,151.88
2019-06-28T06:05:54.517Z,146.25
2019-06-28T06:06:54.517Z,146.25
2019-06-28T06:07:54.516Z,146.25
2019-06-28T06:08:54.512Z,146.25
2019-06-28T06:09:54.511Z,146.25
2019-06-28T06:10:54.509Z,146.25
2019-06-28T06:11:54.510Z,146.25
2019-06-28T06:12:54.509Z,146.25
2019-06-28T06:14:10.032Z,146.25
2019-06-28T06:14:54.505Z,151.88
2019-06-28T06:15:54.507Z,151.88
2019-06-28T06:16:54.504Z,151.88
2019-06-28T06:17:54.503Z,151.88
2019-06-28T06:18:54.501Z,151.88
2019-06-28T06:19:54.500Z,151.88
2019-06-28T06:20:54.499Z,151.88
2019-06-28T06:21:54.498Z,151.88
2019-06-28T06:22:54.495Z,157.50
2019-06-28T06:23:54.496Z,157.50
2019-06-28T06:24:54.505Z,157.50
2019-06-28T06:25:54.495Z,157.50
2019-06-28T06:26:54.493Z,157.50
2019-06-28T06:27:54.491Z,157.50
2019-06-28T06:28:54.496Z,157.50
2019-06-28T06:29:54.487Z,157.50
2019-06-28T06:30:54.504Z,157.50
2019-06-28T06:31:54.488Z,151.88
2019-06-28T06:32:57.964Z,151.88
2019-06-28T06:33:54.484Z,151.88
2019-06-28T06:34:54.488Z,151.88
2019-06-28T06:35:54.484Z,151.88
2019-06-28T06:36:54.490Z,151.88
2019-06-28T06:37:54.483Z,151.88
2019-06-28T06:38:54.482Z,151.88
2019-06-28T06:39:54.482Z,151.88
2019-06-28T06:40:54.480Z,151.88
2019-06-28T06:41:54.478Z,151.88
2019-06-28T06:42:54.478Z,151.88
2019-06-28T06:43:54.476Z,151.88
2019-06-28T06:44:54.478Z,151.88
2019-06-28T06:45:54.473Z,151.88
2019-06-28T06:46:54.472Z,151.88
2019-06-28T06:47:54.473Z,151.88
2019-06-28T06:48:54.474Z,151.88
2019-06-28T06:49:54.473Z,157.50
2019-06-28T06:50:54.469Z,151.88
2019-06-28T06:51:54.471Z,151.88
2019-06-28T06:52:54.473Z,151.88
2019-06-28T06:53:54.476Z,151.88
2019-06-28T06:54:54.497Z,151.88
2019-06-28T06:55:54.486Z,151.88
2019-06-28T06:56:54.470Z,151.88
2019-06-28T06:57:54.476Z,151.88
2019-06-28T06:58:54.509Z,151.88
2019-06-28T06:59:54.463Z,151.88
2019-06-28T07:00:54.464Z,151.88
2019-06-28T07:01:54.465Z,146.25
2019-06-28T07:02:54.465Z,146.25
2019-06-28T07:03:54.461Z,146.25
2019-06-28T07:04:54.463Z,146.25
2019-06-28T07:05:54.463Z,146.25
2019-06-28T07:06:54.460Z,146.25
2019-06-28T07:07:54.458Z,146.25
2019-06-28T07:08:54.457Z,146.25
2019-06-28T07:09:54.457Z,146.25
2019-06-28T07:10:54.455Z,146.25
2019-06-28T07:11:54.457Z,146.25
2019-06-28T07:12:54.454Z,146.25
2019-06-28T07:13:54.452Z,146.25
2019-06-28T07:14:55.336Z,146.25
2019-06-28T07:15:54.450Z,140.63
2019-06-28T07:16:54.454Z,140.63
2019-06-28T07:17:54.449Z,140.63
2019-06-28T07:18:54.451Z,140.63
2019-06-28T07:19:56.175Z,140.63
2019-06-28T07:20:54.448Z,140.63
2019-06-28T07:21:54.448Z,140.63
2019-06-28T07:22:54.449Z,140.63
2019-06-28T07:23:54.446Z,135.00
2019-06-28T07:24:54.446Z,135.00
2019-06-28T07:25:54.446Z,135.00
2019-06-28T07:26:54.444Z,135.00
2019-06-28T07:27:54.442Z,135.00
2019-06-28T07:28:54.442Z,135.00
2019-06-28T07:29:54.439Z,135.00
2019-06-28T07:30:54.443Z,135.00
2019-06-28T07:31:54.439Z,135.00
2019-06-28T07:32:54.441Z,135.00
2019-06-28T07:33:54.443Z,135.00
2019-06-28T07:34:54.436Z,135.00
2019-06-28T07:35:54.435Z,135.00
2019-06-28T07:36:54.433Z,135.00
2019-06-28T07:37:54.434Z,129.38
2019-06-28T07:38:54.432Z,129.38
2019-06-28T07:39:54.431Z,129.38
2019-06-28T07:40:54.431Z,129.38
2019-06-28T07:41:54.430Z,129.38
2019-06-28T07:42:54.430Z,129.38
2019-06-28T07:43:54.428Z,129.38
2019-06-28T07:45:00.994Z,123.75
2019-06-28T07:45:54.431Z,123.75
2019-06-28T07:46:54.429Z,123.75
2019-06-28T07:47:54.425Z,123.75
2019-06-28T07:48:54.426Z,123.75
2019-06-28T07:49:54.424Z,123.75
2019-06-28T07:50:54.436Z,123.75
2019-06-28T07:51:54.430Z,123.75
2019-06-28T07:52:54.431Z,123.75
2019-06-28T07:53:54.425Z,118.13
2019-06-28T07:54:54.425Z,118.13
2019-06-28T07:55:54.425Z,118.13
2019-06-28T07:56:54.436Z,118.13
2019-06-28T07:57:54.436Z,118.13
2019-06-28T07:58:54.421Z,118.13
2019-06-28T07:59:54.420Z,118.13
2019-06-28T08:00:54.420Z,118.13
2019-06-28T08:01:54.425Z,118.13
2019-06-28T08:02:54.419Z,118.13
2019-06-28T08:03:54.487Z,118.13
2019-06-28T08:04:55.475Z,118.13
2019-06-28T08:05:54.418Z,118.13
2019-06-28T08:06:54.418Z,118.13
2019-06-28T08:07:54.416Z,118.13
2019-06-28T08:08:54.423Z,118.13
2019-06-28T08:09:54.463Z,118.13
2019-06-28T08:10:54.416Z,123.75
2019-06-28T08:11:54.416Z,118.13
2019-06-28T08:12:54.418Z,112.50
2019-06-28T08:13:54.413Z,112.50
2019-06-28T08:14:54.414Z,112.50
2019-06-28T08:15:54.417Z,112.50
2019-06-28T08:16:54.411Z,112.50
2019-06-28T08:17:54.410Z,112.50
2019-06-28T08:18:54.411Z,112.50
2019-06-28T08:19:54.415Z,112.50
2019-06-28T08:20:54.413Z,112.50
2019-06-28T08:21:54.412Z,112.50
2019-06-28T08:22:54.412Z,112.50
2019-06-28T08:23:54.497Z,112.50
2019-06-28T08:24:54.412Z,112.50
2019-06-28T08:25:54.417Z,112.50
2019-06-28T08:26:54.411Z,118.13
2019-06-28T08:27:54.408Z,112.50
2019-06-28T08:28:54.413Z,112.50
2019-06-28T08:29:54.417Z,112.50
2019-06-28T08:30:54.411Z,112.50
2019-06-28T08:31:54.411Z,112.50
2019-06-28T08:32:54.411Z,112.50
2019-06-28T08:33:54.409Z,112.50
2019-06-28T08:34:54.417Z,112.50
2019-06-28T08:35:54.413Z,112.50
2019-06-28T08:36:54.409Z,112.50
2019-06-28T08:37:54.408Z,112.50
2019-06-28T08:38:54.410Z,112.50
2019-06-28T08:39:54.409Z,112.50
2019-06-28T08:40:54.411Z,112.50
2019-06-28T08:41:54.408Z,112.50
2019-06-28T08:42:54.411Z,112.50
2019-06-28T08:43:54.417Z,112.50
2019-06-28T08:44:54.411Z,112.50
2019-06-28T08:45:54.412Z,112.50
2019-06-28T08:46:54.410Z,112.50
2019-06-28T08:47:54.411Z,112.50
2019-06-28T08:48:54.410Z,112.50
2019-06-28T08:49:54.410Z,112.50
2019-06-28T08:50:54.413Z,106.88
2019-06-28T08:51:54.412Z,106.88
2019-06-28T08:52:54.416Z,106.88
2019-06-28T08:53:54.410Z,106.88
2019-06-28T08:54:54.411Z,106.88
2019-06-28T08:55:54.412Z,106.88
2019-06-28T08:56:54.414Z,106.88
2019-06-28T08:58:14.203Z,106.88
2019-06-28T08:59:54.415Z,106.88
2019-06-28T09:00:54.413Z,106.88
2019-06-28T09:01:54.413Z,106.88
2019-06-28T09:02:54.415Z,106.88
2019-06-28T09:03:54.413Z,106.88
2019-06-28T09:04:54.415Z,106.88
2019-06-28T09:05:54.411Z,106.88
2019-06-28T09:06:54.413Z,106.88
2019-06-28T09:07:54.455Z,106.88
2019-06-28T09:08:54.415Z,106.88
2019-06-28T09:09:54.413Z,106.88
2019-06-28T09:10:54.431Z,106.88
2019-06-28T09:11:54.414Z,106.88
2019-06-28T09:12:54.417Z,106.88
2019-06-28T09:13:54.417Z,106.88
2019-06-28T09:14:54.419Z,106.88
2019-06-28T09:15:54.416Z,106.88
2019-06-28T09:16:54.419Z,106.88
2019-06-28T09:17:54.425Z,106.88
2019-06-28T09:18:54.430Z,106.88
2019-06-28T09:19:54.419Z,106.88
2019-06-28T09:20:54.421Z,106.88
2019-06-28T09:21:54.420Z,106.88
2019-06-28T09:22:54.420Z,106.88
2019-06-28T09:23:54.427Z,106.88
2019-06-28T09:24:54.420Z,106.88
2019-06-28T09:25:54.419Z,106.88
2019-06-28T09:26:54.422Z,106.88
2019-06-28T09:27:54.424Z,106.88
2019-06-28T09:28:54.423Z,106.88
2019-06-28T09:29:54.422Z,106.88
2019-06-28T09:30:54.426Z,106.88
2019-06-28T09:31:54.423Z,106.88
2019-06-28T09:32:54.423Z,101.25
2019-06-28T09:33:54.424Z,101.25
2019-06-28T09:34:54.425Z,106.88
2019-06-28T09:35:54.423Z,101.25
2019-06-28T09:36:54.426Z,101.25
2019-06-28T09:37:54.424Z,101.25
2019-06-28T09:38:54.427Z,101.25
2019-06-28T09:39:54.468Z,101.25
2019-06-28T09:40:54.428Z,101.25
2019-06-28T09:41:54.428Z,101.25
2019-06-28T09:42:54.429Z,101.25
2019-06-28T09:43:54.431Z,101.25
2019-06-28T09:44:54.429Z,101.25
2019-06-28T09:46:07.490Z,101.25
2019-06-28T09:46:54.429Z,101.25
2019-06-28T09:47:54.430Z,101.25
2019-06-28T09:48:54.431Z,101.25
2019-06-28T09:49:54.433Z,101.25
2019-06-28T09:50:54.436Z,101.25
2019-06-28T09:51:54.433Z,101.25
2019-06-28T09:52:54.437Z,101.25
2019-06-28T09:53:54.434Z,101.25
2019-06-28T09:54:54.435Z,101.25
2019-06-28T09:55:54.436Z,101.25
2019-06-28T09:56:54.438Z,101.25
2019-06-28T09:57:54.436Z,101.25
2019-06-28T09:58:54.437Z,101.25
2019-06-28T09:59:54.439Z,101.25
2019-06-28T10:00:54.442Z,101.25
2019-06-28T10:01:57.209Z,101.25
2019-06-28T10:02:54.441Z,101.25
2019-06-28T10:03:54.442Z,101.25
2019-06-28T10:04:54.445Z,101.25
2019-06-28T10:05:54.443Z,101.25
2019-06-28T10:06:54.446Z,101.25
2019-06-28T10:07:54.446Z,101.25
2019-06-28T10:08:54.466Z,101.25
2019-06-28T10:09:54.448Z,101.25
2019-06-28T10:10:54.449Z,101.25
2019-06-28T10:11:54.460Z,101.25
2019-06-28T10:12:54.474Z,101.25
2019-06-28T10:13:54.450Z,101.25
2019-06-28T10:14:54.451Z,101.25
2019-06-28T10:15:54.455Z,101.25
2019-06-28T10:16:54.456Z,101.25
2019-06-28T10:17:54.463Z,101.25
2019-06-28T10:18:54.474Z,101.25
2019-06-28T10:19:54.455Z,101.25
2019-06-28T10:20:54.457Z,101.25
2019-06-28T10:21:54.457Z,101.25
2019-06-28T10:22:54.458Z,101.25
2019-06-28T10:23:54.459Z,101.25
2019-06-28T10:24:54.461Z,101.25
2019-06-28T10:25:54.480Z,101.25
2019-06-28T10:26:54.463Z,101.25
2019-06-28T10:27:54.463Z,101.25
2019-06-28T10:28:54.473Z,101.25
2019-06-28T10:29:54.465Z,101.25
2019-06-28T10:30:54.550Z,101.25
2019-06-28T10:31:57.129Z,101.25
2019-06-28T10:32:54.469Z,101.25
2019-06-28T10:33:54.469Z,101.25
2019-06-28T10:34:54.476Z,101.25
2019-06-28T10:35:54.478Z,101.25
2019-06-28T10:36:54.479Z,101.25
2019-06-28T10:37:54.472Z,101.25
2019-06-28T10:38:54.481Z,101.25
2019-06-28T10:39:54.476Z,101.25
2019-06-28T10:40:54.478Z,101.25
2019-06-28T10:41:54.482Z,106.88
2019-06-28T10:42:54.480Z,101.25
2019-06-28T10:43:54.480Z,101.25
2019-06-28T10:44:54.482Z,101.25
2019-06-28T10:45:54.482Z,101.25
2019-06-28T10:46:54.485Z,101.25
2019-06-28T10:47:54.486Z,101.25
2019-06-28T10:48:54.487Z,101.25
2019-06-28T10:49:54.488Z,101.25
2019-06-28T10:50:54.491Z,101.25
2019-06-28T10:51:54.489Z,101.25
2019-06-28T10:52:54.493Z,101.25
2019-06-28T10:53:54.493Z,101.25
2019-06-28T10:54:54.499Z,101.25
2019-06-28T10:55:54.495Z,101.25
2019-06-28T10:56:54.500Z,101.25
2019-06-28T10:57:54.498Z,101.25
2019-06-28T10:58:54.504Z,101.25
2019-06-28T10:59:54.500Z,101.25
2019-06-28T11:00:54.556Z,101.25
2019-06-28T11:01:54.502Z,101.25
2019-06-28T11:02:54.504Z,101.25
2019-06-28T11:03:54.505Z,101.25
2019-06-28T11:04:54.507Z,101.25
2019-06-28T11:05:54.508Z,101.25
2019-06-28T11:06:54.509Z,101.25
2019-06-28T11:07:54.509Z,101.25
2019-06-28T11:08:54.513Z,101.25
2019-06-28T11:09:54.511Z,101.25
2019-06-28T11:10:54.515Z,101.25
2019-06-28T11:11:54.515Z,101.25
2019-06-28T11:12:54.516Z,101.25
2019-06-28T11:13:54.518Z,101.25
2019-06-28T11:14:54.519Z,101.25
2019-06-28T11:15:54.531Z,101.25
2019-06-28T11:16:59.317Z,101.25
2019-06-28T11:17:54.526Z,101.25
2019-06-28T11:18:54.523Z,101.25
2019-06-28T11:19:54.530Z,101.25
2019-06-28T11:20:54.528Z,101.25
2019-06-28T11:21:54.528Z,101.25
2019-06-28T11:22:54.530Z,101.25
2019-06-28T11:23:54.531Z,101.25
2019-06-28T11:24:54.532Z,101.25
2019-06-28T11:25:54.534Z,101.25
2019-06-28T11:26:54.541Z,101.25
2019-06-28T11:27:54.538Z,101.25
2019-06-28T11:28:54.539Z,101.25
2019-06-28T11:29:54.539Z,101.25
2019-06-28T11:30:54.541Z,101.25
2019-06-28T11:31:54.541Z,101.25
2019-06-28T11:32:54.540Z,101.25
2019-06-28T11:33:54.544Z,101.25
2019-06-28T11:34:54.545Z,101.25
2019-06-28T11:35:54.667Z,101.25
2019-06-28T11:36:54.550Z,101.25
2019-06-28T11:37:54.550Z,101.25
2019-06-28T11:38:58.164Z,101.25
2019-06-28T11:39:54.554Z,101.25
2019-06-28T11:40:54.555Z,101.25
2019-06-28T11:41:54.555Z,101.25
2019-06-28T11:42:54.560Z,101.25
2019-06-28T11:43:54.559Z,106.88
2019-06-28T11:44:54.565Z,106.88
2019-06-28T11:45:54.564Z,106.88
2019-06-28T11:46:54.564Z,106.88
2019-06-28T11:47:54.564Z,106.88
2019-06-28T11:48:54.566Z,106.88
2019-06-28T11:49:54.566Z,106.88
2019-06-28T11:50:54.569Z,106.88
2019-06-28T11:51:55.562Z,106.88
2019-06-28T11:52:54.570Z,106.88
2019-06-28T11:53:54.571Z,106.88
2019-06-28T11:54:54.574Z,106.88
2019-06-28T11:55:54.574Z,106.88
2019-06-28T11:56:54.577Z,106.88
2019-06-28T11:57:54.578Z,106.88
2019-06-28T11:58:54.579Z,106.88
2019-06-28T11:59:54.585Z,106.88
2019-06-28T12:00:54.634Z,106.88
2019-06-28T12:01:54.583Z,106.88
2019-06-28T12:02:54.586Z,106.88
2019-06-28T12:03:54.586Z,106.88
2019-06-28T12:04:54.589Z,106.88
2019-06-28T12:05:54.594Z,106.88
2019-06-28T12:06:54.592Z,106.88
2019-06-28T12:07:54.591Z,106.88
2019-06-28T12:08:54.619Z,106.88
2019-06-28T12:09:54.597Z,106.88
2019-06-28T12:10:54.608Z,106.88
2019-06-28T12:11:54.601Z,106.88
2019-06-28T12:12:54.606Z,106.88
2019-06-28T12:13:54.602Z,106.88
2019-06-28T12:14:54.605Z,106.88
2019-06-28T12:15:54.608Z,112.50
2019-06-28T12:16:54.613Z,112.50
2019-06-28T12:17:54.610Z,112.50
2019-06-28T12:18:54.610Z,106.88
2019-06-28T12:19:54.618Z,106.88
2019-06-28T12:20:54.614Z,106.88
2019-06-28T12:21:54.615Z,106.88
2019-06-28T12:22:54.618Z,106.88
2019-06-28T12:23:54.620Z,106.88
2019-06-28T12:24:54.623Z,106.88
2019-06-28T12:25:54.624Z,106.88
2019-06-28T12:26:54.625Z,106.88
2019-06-28T12:27:54.631Z,106.88
2019-06-28T12:28:54.630Z,106.88
2019-06-28T12:29:54.628Z,106.88
2019-06-28T12:30:54.635Z,106.88
2019-06-28T12:31:54.633Z,106.88
2019-06-28T12:32:54.655Z,106.88
2019-06-28T12:33:54.636Z,106.88
2019-06-28T12:34:54.645Z,106.88
2019-06-28T12:35:54.645Z,106.88
2019-06-28T12:36:54.643Z,106.88
2019-06-28T12:37:54.648Z,106.88
2019-06-28T12:38:54.646Z,106.88
2019-06-28T12:39:54.650Z,106.88
2019-06-28T12:40:54.651Z,106.88
2019-06-28T12:41:54.652Z,106.88
2019-06-28T12:42:54.657Z,106.88
2019-06-28T12:43:54.655Z,106.88
2019-06-28T12:44:54.661Z,106.88